sensor_id;sensor_type;location;lat;lon;timestamp;P1;durP1;ratioP1;P2;durP2;ratioP2
39128;SDS011;24864;49.940;19.770;2023-06-14T00:00:11;27.85;;;17.15;;
39128;SDS011;24864;49.940;19.770;2023-06-14T00:03:03;25.85;;;15.73;;
39128;SDS011;24864;49.940;19.770;2023-06-14T00:05:31;29.95;;;17.48;;
39128;SDS011;24864;49.940;19.770;2023-06-14T00:08:04;27.50;;;17.00;;
39128;SDS011;24864;49.940;19.770;2023-06-14T00:10:34;26.73;;;17.13;;
39128;SDS011;24864;49.940;19.770;2023-06-14T00:13:03;31.83;;;17.75;;
39128;SDS011;24864;49.940;19.770;2023-06-14T00:15:31;30.90;;;17.58;;
39128;SDS011;24864;49.940;19.770;2023-06-14T00:17:59;26.65;;;16.20;;
39128;SDS011;24864;49.940;19.770;2023-06-14T00:20:30;26.00;;;17.35;;
39128;SDS011;24864;49.940;19.770;2023-06-14T00:22:59;22.73;;;16.13;;
39128;SDS011;24864;49.940;19.770;2023-06-14T00:25:27;28.13;;;17.25;;
39128;SDS011;24864;49.940;19.770;2023-06-14T00:27:57;27.90;;;16.92;;
39128;SDS011;24864;49.940;19.770;2023-06-14T00:30:25;30.95;;;17.55;;
39128;SDS011;24864;49.940;19.770;2023-06-14T00:32:57;27.92;;;16.25;;
39128;SDS011;24864;49.940;19.770;2023-06-14T00:35:25;23.40;;;16.20;;
39128;SDS011;24864;49.940;19.770;2023-06-14T00:37:55;27.70;;;16.65;;
39128;SDS011;24864;49.940;19.770;2023-06-14T00:40:23;30.58;;;15.93;;
39128;SDS011;24864;49.940;19.770;2023-06-14T00:42:51;25.38;;;16.70;;
39128;SDS011;24864;49.940;19.770;2023-06-14T00:45:19;24.13;;;16.40;;
39128;SDS011;24864;49.940;19.770;2023-06-14T00:47:47;29.92;;;18.23;;
39128;SDS011;24864;49.940;19.770;2023-06-14T00:50:17;29.00;;;16.77;;
39128;SDS011;24864;49.940;19.770;2023-06-14T00:52:48;25.75;;;17.88;;
39128;SDS011;24864;49.940;19.770;2023-06-14T00:55:18;31.10;;;17.20;;
39128;SDS011;24864;49.940;19.770;2023-06-14T00:57:46;31.30;;;17.85;;
39128;SDS011;24864;49.940;19.770;2023-06-14T01:00:14;26.73;;;16.23;;
39128;SDS011;24864;49.940;19.770;2023-06-14T01:02:43;28.42;;;16.88;;
39128;SDS011;24864;49.940;19.770;2023-06-14T01:05:11;30.90;;;17.73;;
39128;SDS011;24864;49.940;19.770;2023-06-14T01:07:43;28.58;;;17.98;;
39128;SDS011;24864;49.940;19.770;2023-06-14T01:10:25;30.00;;;18.05;;
39128;SDS011;24864;49.940;19.770;2023-06-14T01:13:05;30.45;;;18.13;;
39128;SDS011;24864;49.940;19.770;2023-06-14T01:15:36;39.00;;;19.65;;
39128;SDS011;24864;49.940;19.770;2023-06-14T01:18:05;34.20;;;18.45;;
39128;SDS011;24864;49.940;19.770;2023-06-14T01:20:33;31.02;;;18.02;;
39128;SDS011;24864;49.940;19.770;2023-06-14T01:23:06;32.97;;;17.75;;
39128;SDS011;24864;49.940;19.770;2023-06-14T01:25:34;36.20;;;19.48;;
39128;SDS011;24864;49.940;19.770;2023-06-14T01:28:04;34.42;;;19.35;;
39128;SDS011;24864;49.940;19.770;2023-06-14T01:30:39;33.05;;;18.40;;
39128;SDS011;24864;49.940;19.770;2023-06-14T01:33:11;33.58;;;19.48;;
39128;SDS011;24864;49.940;19.770;2023-06-14T01:35:41;39.17;;;19.23;;
39128;SDS011;24864;49.940;19.770;2023-06-14T01:38:11;36.83;;;18.95;;
39128;SDS011;24864;49.940;19.770;2023-06-14T01:40:40;35.05;;;18.75;;
39128;SDS011;24864;49.940;19.770;2023-06-14T01:43:10;30.45;;;18.75;;
39128;SDS011;24864;49.940;19.770;2023-06-14T01:45:39;36.58;;;18.50;;
39128;SDS011;24864;49.940;19.770;2023-06-14T01:48:08;44.55;;;22.05;;
39128;SDS011;24864;49.940;19.770;2023-06-14T01:50:37;33.75;;;19.48;;
39128;SDS011;24864;49.940;19.770;2023-06-14T01:53:06;34.88;;;20.50;;
39128;SDS011;24864;49.940;19.770;2023-06-14T01:55:36;35.65;;;19.20;;
39128;SDS011;24864;49.940;19.770;2023-06-14T01:58:04;33.03;;;19.02;;
39128;SDS011;24864;49.940;19.770;2023-06-14T02:00:32;30.98;;;19.90;;
39128;SDS011;24864;49.940;19.770;2023-06-14T02:03:01;33.63;;;19.40;;
39128;SDS011;24864;49.940;19.770;2023-06-14T02:05:31;35.83;;;19.75;;
39128;SDS011;24864;49.940;19.770;2023-06-14T02:08:01;44.58;;;21.38;;
39128;SDS011;24864;49.940;19.770;2023-06-14T02:10:29;37.15;;;20.42;;
39128;SDS011;24864;49.940;19.770;2023-06-14T02:12:58;47.83;;;20.65;;
39128;SDS011;24864;49.940;19.770;2023-06-14T02:15:27;41.53;;;21.60;;
39128;SDS011;24864;49.940;19.770;2023-06-14T02:18:00;44.05;;;20.98;;
39128;SDS011;24864;49.940;19.770;2023-06-14T02:20:30;50.20;;;21.48;;
39128;SDS011;24864;49.940;19.770;2023-06-14T02:22:58;50.97;;;20.85;;
39128;SDS011;24864;49.940;19.770;2023-06-14T02:25:26;46.83;;;22.15;;
39128;SDS011;24864;49.940;19.770;2023-06-14T02:27:54;55.50;;;22.95;;
39128;SDS011;24864;49.940;19.770;2023-06-14T02:30:24;46.13;;;21.35;;
39128;SDS011;24864;49.940;19.770;2023-06-14T02:32:52;57.83;;;23.85;;
39128;SDS011;24864;49.940;19.770;2023-06-14T02:35:20;50.53;;;23.80;;
39128;SDS011;24864;49.940;19.770;2023-06-14T02:37:52;51.42;;;23.10;;
39128;SDS011;24864;49.940;19.770;2023-06-14T02:40:20;58.78;;;23.40;;
39128;SDS011;24864;49.940;19.770;2023-06-14T02:42:48;49.03;;;23.00;;
39128;SDS011;24864;49.940;19.770;2023-06-14T02:45:17;51.58;;;23.45;;
39128;SDS011;24864;49.940;19.770;2023-06-14T02:47:46;47.95;;;22.42;;
39128;SDS011;24864;49.940;19.770;2023-06-14T02:50:14;48.33;;;22.38;;
39128;SDS011;24864;49.940;19.770;2023-06-14T02:52:44;57.25;;;25.13;;
39128;SDS011;24864;49.940;19.770;2023-06-14T02:55:12;64.90;;;25.38;;
39128;SDS011;24864;49.940;19.770;2023-06-14T02:57:40;67.35;;;26.27;;
39128;SDS011;24864;49.940;19.770;2023-06-14T03:00:09;66.93;;;25.73;;
39128;SDS011;24864;49.940;19.770;2023-06-14T03:02:40;65.18;;;27.23;;
39128;SDS011;24864;49.940;19.770;2023-06-14T03:05:11;73.82;;;27.60;;
39128;SDS011;24864;49.940;19.770;2023-06-14T03:07:39;66.85;;;26.90;;
39128;SDS011;24864;49.940;19.770;2023-06-14T03:10:12;73.35;;;27.20;;
39128;SDS011;24864;49.940;19.770;2023-06-14T03:12:41;65.30;;;28.45;;
39128;SDS011;24864;49.940;19.770;2023-06-14T03:15:09;68.05;;;24.85;;
39128;SDS011;24864;49.940;19.770;2023-06-14T03:17:39;71.80;;;25.70;;
39128;SDS011;24864;49.940;19.770;2023-06-14T03:20:13;65.38;;;26.10;;
39128;SDS011;24864;49.940;19.770;2023-06-14T03:22:42;65.03;;;26.10;;
39128;SDS011;24864;49.940;19.770;2023-06-14T03:25:12;72.03;;;26.27;;
39128;SDS011;24864;49.940;19.770;2023-06-14T03:27:41;67.95;;;27.13;;
39128;SDS011;24864;49.940;19.770;2023-06-14T03:30:10;60.00;;;25.15;;
39128;SDS011;24864;49.940;19.770;2023-06-14T03:32:38;48.10;;;22.88;;
39128;SDS011;24864;49.940;19.770;2023-06-14T03:35:07;56.35;;;23.67;;
39128;SDS011;24864;49.940;19.770;2023-06-14T03:37:37;51.45;;;24.33;;
39128;SDS011;24864;49.940;19.770;2023-06-14T03:40:06;47.85;;;22.48;;
39128;SDS011;24864;49.940;19.770;2023-06-14T03:42:34;55.42;;;24.83;;
39128;SDS011;24864;49.940;19.770;2023-06-14T03:45:02;53.95;;;22.70;;
39128;SDS011;24864;49.940;19.770;2023-06-14T03:47:31;55.53;;;25.05;;
39128;SDS011;24864;49.940;19.770;2023-06-14T03:49:59;57.65;;;25.15;;
39128;SDS011;24864;49.940;19.770;2023-06-14T03:52:29;50.08;;;23.42;;
39128;SDS011;24864;49.940;19.770;2023-06-14T03:54:59;57.03;;;23.77;;
39128;SDS011;24864;49.940;19.770;2023-06-14T03:57:30;56.63;;;25.65;;
39128;SDS011;24864;49.940;19.770;2023-06-14T03:59:58;58.53;;;24.58;;
39128;SDS011;24864;49.940;19.770;2023-06-14T04:02:26;61.22;;;25.00;;
39128;SDS011;24864;49.940;19.770;2023-06-14T04:04:55;52.90;;;24.17;;
39128;SDS011;24864;49.940;19.770;2023-06-14T04:07:25;60.15;;;24.92;;
39128;SDS011;24864;49.940;19.770;2023-06-14T04:09:55;54.10;;;25.38;;
39128;SDS011;24864;49.940;19.770;2023-06-14T04:12:24;54.13;;;23.00;;
39128;SDS011;24864;49.940;19.770;2023-06-14T04:14:53;58.20;;;23.05;;
39128;SDS011;24864;49.940;19.770;2023-06-14T04:17:30;43.45;;;21.63;;
39128;SDS011;24864;49.940;19.770;2023-06-14T04:19:59;49.10;;;22.92;;
39128;SDS011;24864;49.940;19.770;2023-06-14T04:22:27;54.25;;;23.75;;
39128;SDS011;24864;49.940;19.770;2023-06-14T04:24:57;55.95;;;23.48;;
39128;SDS011;24864;49.940;19.770;2023-06-14T04:27:32;52.50;;;23.67;;
39128;SDS011;24864;49.940;19.770;2023-06-14T04:30:03;57.75;;;24.58;;
39128;SDS011;24864;49.940;19.770;2023-06-14T04:32:32;57.55;;;24.77;;
39128;SDS011;24864;49.940;19.770;2023-06-14T04:35:06;55.17;;;26.08;;
39128;SDS011;24864;49.940;19.770;2023-06-14T04:37:35;63.08;;;25.50;;
39128;SDS011;24864;49.940;19.770;2023-06-14T04:40:07;55.42;;;25.52;;
39128;SDS011;24864;49.940;19.770;2023-06-14T04:42:39;60.95;;;26.27;;
39128;SDS011;24864;49.940;19.770;2023-06-14T04:45:11;64.13;;;28.33;;
39128;SDS011;24864;49.940;19.770;2023-06-14T04:47:40;58.20;;;25.27;;
39128;SDS011;24864;49.940;19.770;2023-06-14T04:50:09;73.25;;;28.90;;
39128;SDS011;24864;49.940;19.770;2023-06-14T04:52:39;65.70;;;27.27;;
39128;SDS011;24864;49.940;19.770;2023-06-14T04:55:07;76.90;;;28.00;;
39128;SDS011;24864;49.940;19.770;2023-06-14T04:57:36;74.43;;;29.73;;
39128;SDS011;24864;49.940;19.770;2023-06-14T05:00:07;70.95;;;28.80;;
39128;SDS011;24864;49.940;19.770;2023-06-14T05:02:38;77.40;;;27.73;;
39128;SDS011;24864;49.940;19.770;2023-06-14T05:05:07;73.50;;;31.00;;
39128;SDS011;24864;49.940;19.770;2023-06-14T05:07:36;81.60;;;31.00;;
39128;SDS011;24864;49.940;19.770;2023-06-14T05:10:08;74.25;;;29.92;;
39128;SDS011;24864;49.940;19.770;2023-06-14T05:12:37;82.90;;;29.83;;
39128;SDS011;24864;49.940;19.770;2023-06-14T05:15:07;69.80;;;29.05;;
39128;SDS011;24864;49.940;19.770;2023-06-14T05:17:36;74.18;;;30.08;;
39128;SDS011;24864;49.940;19.770;2023-06-14T05:20:05;78.50;;;30.05;;
39128;SDS011;24864;49.940;19.770;2023-06-14T05:22:34;67.55;;;28.08;;
39128;SDS011;24864;49.940;19.770;2023-06-14T05:25:03;67.00;;;29.73;;
39128;SDS011;24864;49.940;19.770;2023-06-14T05:27:31;73.28;;;28.80;;
39128;SDS011;24864;49.940;19.770;2023-06-14T05:30:02;62.60;;;29.30;;
39128;SDS011;24864;49.940;19.770;2023-06-14T05:32:33;75.97;;;30.95;;
39128;SDS011;24864;49.940;19.770;2023-06-14T05:35:01;71.00;;;29.08;;
39128;SDS011;24864;49.940;19.770;2023-06-14T05:37:30;76.68;;;32.33;;
39128;SDS011;24864;49.940;19.770;2023-06-14T05:39:58;59.30;;;31.83;;
39128;SDS011;24864;49.940;19.770;2023-06-14T05:42:26;72.47;;;31.10;;
39128;SDS011;24864;49.940;19.770;2023-06-14T05:44:54;71.40;;;31.17;;
39128;SDS011;24864;49.940;19.770;2023-06-14T05:47:23;59.50;;;28.75;;
39128;SDS011;24864;49.940;19.770;2023-06-14T05:49:53;60.80;;;30.38;;
39128;SDS011;24864;49.940;19.770;2023-06-14T05:52:21;61.72;;;29.02;;
39128;SDS011;24864;49.940;19.770;2023-06-14T05:54:50;53.88;;;26.20;;
39128;SDS011;24864;49.940;19.770;2023-06-14T05:57:18;54.25;;;26.60;;
39128;SDS011;24864;49.940;19.770;2023-06-14T05:59:46;48.28;;;23.65;;
39128;SDS011;24864;49.940;19.770;2023-06-14T06:02:14;54.10;;;25.13;;
39128;SDS011;24864;49.940;19.770;2023-06-14T06:04:42;52.90;;;25.65;;
39128;SDS011;24864;49.940;19.770;2023-06-14T06:07:12;50.75;;;24.45;;
39128;SDS011;24864;49.940;19.770;2023-06-14T06:09:40;49.90;;;25.40;;
39128;SDS011;24864;49.940;19.770;2023-06-14T06:12:08;49.90;;;25.00;;
39128;SDS011;24864;49.940;19.770;2023-06-14T06:14:37;55.80;;;25.60;;
39128;SDS011;24864;49.940;19.770;2023-06-14T06:17:05;51.65;;;25.90;;
39128;SDS011;24864;49.940;19.770;2023-06-14T06:19:33;50.58;;;24.42;;
39128;SDS011;24864;49.940;19.770;2023-06-14T06:22:01;54.38;;;25.80;;
39128;SDS011;24864;49.940;19.770;2023-06-14T06:24:32;49.83;;;24.83;;
39128;SDS011;24864;49.940;19.770;2023-06-14T06:27:01;54.55;;;26.35;;
39128;SDS011;24864;49.940;19.770;2023-06-14T06:29:30;44.97;;;24.33;;
39128;SDS011;24864;49.940;19.770;2023-06-14T06:31:58;44.45;;;23.73;;
39128;SDS011;24864;49.940;19.770;2023-06-14T06:34:26;45.10;;;24.58;;
39128;SDS011;24864;49.940;19.770;2023-06-14T06:36:54;54.88;;;26.67;;
39128;SDS011;24864;49.940;19.770;2023-06-14T06:39:23;52.50;;;26.70;;
39128;SDS011;24864;49.940;19.770;2023-06-14T06:41:53;55.15;;;25.52;;
39128;SDS011;24864;49.940;19.770;2023-06-14T06:44:21;53.60;;;25.30;;
39128;SDS011;24864;49.940;19.770;2023-06-14T06:46:49;52.95;;;27.02;;
39128;SDS011;24864;49.940;19.770;2023-06-14T06:49:18;59.40;;;27.42;;
39128;SDS011;24864;49.940;19.770;2023-06-14T06:51:58;46.97;;;25.77;;
39128;SDS011;24864;49.940;19.770;2023-06-14T06:54:28;54.60;;;24.77;;
39128;SDS011;24864;49.940;19.770;2023-06-14T06:56:57;48.25;;;24.45;;
39128;SDS011;24864;49.940;19.770;2023-06-14T06:59:25;51.00;;;26.05;;
39128;SDS011;24864;49.940;19.770;2023-06-14T07:01:53;50.25;;;25.45;;
39128;SDS011;24864;49.940;19.770;2023-06-14T07:04:22;45.67;;;24.63;;
39128;SDS011;24864;49.940;19.770;2023-06-14T07:06:50;48.20;;;26.33;;
39128;SDS011;24864;49.940;19.770;2023-06-14T07:09:18;42.65;;;24.00;;
39128;SDS011;24864;49.940;19.770;2023-06-14T07:11:47;59.45;;;27.67;;
39128;SDS011;24864;49.940;19.770;2023-06-14T07:14:16;55.65;;;26.27;;
39128;SDS011;24864;49.940;19.770;2023-06-14T07:16:45;50.88;;;27.35;;
39128;SDS011;24864;49.940;19.770;2023-06-14T07:19:13;54.53;;;27.40;;
39128;SDS011;24864;49.940;19.770;2023-06-14T07:21:42;50.38;;;25.65;;
39128;SDS011;24864;49.940;19.770;2023-06-14T07:24:10;49.55;;;25.00;;
39128;SDS011;24864;49.940;19.770;2023-06-14T07:26:38;37.05;;;22.85;;
39128;SDS011;24864;49.940;19.770;2023-06-14T07:29:06;40.40;;;22.50;;
39128;SDS011;24864;49.940;19.770;2023-06-14T07:31:35;42.30;;;23.20;;
39128;SDS011;24864;49.940;19.770;2023-06-14T07:34:04;41.80;;;23.83;;
39128;SDS011;24864;49.940;19.770;2023-06-14T07:36:32;35.17;;;21.65;;
39128;SDS011;24864;49.940;19.770;2023-06-14T07:39:00;35.28;;;21.58;;
39128;SDS011;24864;49.940;19.770;2023-06-14T07:41:29;38.33;;;20.88;;
39128;SDS011;24864;49.940;19.770;2023-06-14T07:43:58;40.72;;;22.27;;
39128;SDS011;24864;49.940;19.770;2023-06-14T07:46:26;35.63;;;21.27;;
39128;SDS011;24864;49.940;19.770;2023-06-14T07:48:56;41.13;;;23.52;;
39128;SDS011;24864;49.940;19.770;2023-06-14T07:51:24;27.50;;;18.77;;
39128;SDS011;24864;49.940;19.770;2023-06-14T07:53:52;34.90;;;19.10;;
39128;SDS011;24864;49.940;19.770;2023-06-14T07:56:20;28.27;;;17.30;;
39128;SDS011;24864;49.940;19.770;2023-06-14T07:58:49;22.95;;;15.40;;
39128;SDS011;24864;49.940;19.770;2023-06-14T08:01:17;23.63;;;15.38;;
39128;SDS011;24864;49.940;19.770;2023-06-14T08:03:46;23.67;;;16.52;;
39128;SDS011;24864;49.940;19.770;2023-06-14T08:06:16;25.42;;;16.98;;
39128;SDS011;24864;49.940;19.770;2023-06-14T08:08:44;27.70;;;17.00;;
39128;SDS011;24864;49.940;19.770;2023-06-14T08:11:12;23.10;;;14.95;;
39128;SDS011;24864;49.940;19.770;2023-06-14T08:13:40;31.27;;;17.00;;
39128;SDS011;24864;49.940;19.770;2023-06-14T08:16:08;29.27;;;17.40;;
39128;SDS011;24864;49.940;19.770;2023-06-14T08:18:37;26.38;;;16.65;;
39128;SDS011;24864;49.940;19.770;2023-06-14T08:21:05;28.63;;;18.17;;
39128;SDS011;24864;49.940;19.770;2023-06-14T08:23:35;22.77;;;14.55;;
39128;SDS011;24864;49.940;19.770;2023-06-14T08:26:03;22.65;;;13.32;;
39128;SDS011;24864;49.940;19.770;2023-06-14T08:28:32;18.50;;;14.13;;
39128;SDS011;24864;49.940;19.770;2023-06-14T08:31:00;20.92;;;12.40;;
39128;SDS011;24864;49.940;19.770;2023-06-14T08:33:28;19.70;;;14.52;;
39128;SDS011;24864;49.940;19.770;2023-06-14T08:35:56;19.75;;;13.93;;
39128;SDS011;24864;49.940;19.770;2023-06-14T08:38:24;21.23;;;14.18;;
39128;SDS011;24864;49.940;19.770;2023-06-14T08:40:55;18.55;;;12.43;;
39128;SDS011;24864;49.940;19.770;2023-06-14T08:43:25;18.17;;;12.23;;
39128;SDS011;24864;49.940;19.770;2023-06-14T08:45:53;17.55;;;13.52;;
39128;SDS011;24864;49.940;19.770;2023-06-14T08:48:26;18.95;;;12.77;;
39128;SDS011;24864;49.940;19.770;2023-06-14T08:50:55;16.08;;;12.25;;
39128;SDS011;24864;49.940;19.770;2023-06-14T08:53:29;15.80;;;11.80;;
39128;SDS011;24864;49.940;19.770;2023-06-14T08:58:31;16.60;;;11.82;;
39128;SDS011;24864;49.940;19.770;2023-06-14T09:01:00;20.35;;;13.75;;
39128;SDS011;24864;49.940;19.770;2023-06-14T09:03:29;15.52;;;10.85;;
39128;SDS011;24864;49.940;19.770;2023-06-14T09:05:57;12.65;;;10.98;;
39128;SDS011;24864;49.940;19.770;2023-06-14T09:08:27;13.18;;;10.55;;
39128;SDS011;24864;49.940;19.770;2023-06-14T09:10:56;14.68;;;11.25;;
39128;SDS011;24864;49.940;19.770;2023-06-14T09:13:27;14.45;;;10.85;;
39128;SDS011;24864;49.940;19.770;2023-06-14T09:15:57;14.25;;;11.30;;
39128;SDS011;24864;49.940;19.770;2023-06-14T09:18:33;14.57;;;12.15;;
39128;SDS011;24864;49.940;19.770;2023-06-14T09:21:02;15.57;;;12.75;;
39128;SDS011;24864;49.940;19.770;2023-06-14T09:23:32;12.77;;;10.20;;
39128;SDS011;24864;49.940;19.770;2023-06-14T09:26:01;15.15;;;10.38;;
39128;SDS011;24864;49.940;19.770;2023-06-14T09:28:31;13.38;;;11.00;;
39128;SDS011;24864;49.940;19.770;2023-06-14T09:30:59;14.63;;;11.05;;
39128;SDS011;24864;49.940;19.770;2023-06-14T09:33:28;13.15;;;9.88;;
39128;SDS011;24864;49.940;19.770;2023-06-14T09:35:56;10.98;;;9.23;;
39128;SDS011;24864;49.940;19.770;2023-06-14T09:38:24;11.88;;;10.60;;
39128;SDS011;24864;49.940;19.770;2023-06-14T09:40:52;11.45;;;8.65;;
39128;SDS011;24864;49.940;19.770;2023-06-14T09:43:24;7.50;;;6.73;;
39128;SDS011;24864;49.940;19.770;2023-06-14T09:45:55;8.75;;;7.30;;
39128;SDS011;24864;49.940;19.770;2023-06-14T09:48:23;9.60;;;7.82;;
39128;SDS011;24864;49.940;19.770;2023-06-14T09:50:52;10.93;;;8.88;;
39128;SDS011;24864;49.940;19.770;2023-06-14T09:53:22;9.48;;;7.40;;
39128;SDS011;24864;49.940;19.770;2023-06-14T09:55:51;9.23;;;7.03;;
39128;SDS011;24864;49.940;19.770;2023-06-14T09:58:20;7.13;;;6.43;;
39128;SDS011;24864;49.940;19.770;2023-06-14T10:00:51;7.55;;;6.82;;
39128;SDS011;24864;49.940;19.770;2023-06-14T10:03:28;8.80;;;6.93;;
39128;SDS011;24864;49.940;19.770;2023-06-14T10:06:09;8.20;;;7.40;;
39128;SDS011;24864;49.940;19.770;2023-06-14T10:08:38;8.52;;;5.95;;
39128;SDS011;24864;49.940;19.770;2023-06-14T10:11:07;9.20;;;7.68;;
39128;SDS011;24864;49.940;19.770;2023-06-14T10:13:35;12.18;;;10.95;;
39128;SDS011;24864;49.940;19.770;2023-06-14T10:16:05;9.07;;;6.40;;
39128;SDS011;24864;49.940;19.770;2023-06-14T10:18:40;6.90;;;6.20;;
39128;SDS011;24864;49.940;19.770;2023-06-14T10:21:13;6.35;;;5.07;;
39128;SDS011;24864;49.940;19.770;2023-06-14T10:23:46;6.45;;;5.20;;
39128;SDS011;24864;49.940;19.770;2023-06-14T10:26:19;23.50;;;6.68;;
39128;SDS011;24864;49.940;19.770;2023-06-14T10:28:55;8.82;;;5.80;;
39128;SDS011;24864;49.940;19.770;2023-06-14T10:31:39;8.50;;;6.15;;
39128;SDS011;24864;49.940;19.770;2023-06-14T10:34:10;6.13;;;4.43;;
39128;SDS011;24864;49.940;19.770;2023-06-14T10:36:40;4.00;;;3.58;;
39128;SDS011;24864;49.940;19.770;2023-06-14T10:39:10;4.05;;;3.65;;
39128;SDS011;24864;49.940;19.770;2023-06-14T10:41:41;4.10;;;3.70;;
39128;SDS011;24864;49.940;19.770;2023-06-14T10:44:11;4.60;;;4.00;;
39128;SDS011;24864;49.940;19.770;2023-06-14T10:47:00;8.88;;;4.43;;
39128;SDS011;24864;49.940;19.770;2023-06-14T10:49:43;5.35;;;4.53;;
39128;SDS011;24864;49.940;19.770;2023-06-14T10:52:13;5.53;;;4.18;;
39128;SDS011;24864;49.940;19.770;2023-06-14T10:57:35;12.45;;;7.43;;
39128;SDS011;24864;49.940;19.770;2023-06-14T11:00:18;10.90;;;9.45;;
39128;SDS011;24864;49.940;19.770;2023-06-14T11:03:06;12.50;;;8.38;;
39128;SDS011;24864;49.940;19.770;2023-06-14T11:06:00;9.48;;;8.27;;
39128;SDS011;24864;49.940;19.770;2023-06-14T11:11:41;8.68;;;7.78;;
39128;SDS011;24864;49.940;19.770;2023-06-14T11:14:09;10.95;;;8.10;;
39128;SDS011;24864;49.940;19.770;2023-06-14T11:16:38;6.97;;;6.30;;
39128;SDS011;24864;49.940;19.770;2023-06-14T11:19:06;7.28;;;6.43;;
39128;SDS011;24864;49.940;19.770;2023-06-14T11:21:36;7.68;;;6.25;;
39128;SDS011;24864;49.940;19.770;2023-06-14T11:24:09;7.22;;;5.95;;
39128;SDS011;24864;49.940;19.770;2023-06-14T11:26:39;8.80;;;7.32;;
39128;SDS011;24864;49.940;19.770;2023-06-14T11:29:07;10.75;;;7.10;;
39128;SDS011;24864;49.940;19.770;2023-06-14T11:31:36;10.98;;;8.48;;
39128;SDS011;24864;49.940;19.770;2023-06-14T11:34:04;9.25;;;7.07;;
39128;SDS011;24864;49.940;19.770;2023-06-14T11:36:33;11.07;;;6.93;;
39128;SDS011;24864;49.940;19.770;2023-06-14T11:39:03;8.30;;;7.28;;
39128;SDS011;24864;49.940;19.770;2023-06-14T11:41:34;10.63;;;7.88;;
39128;SDS011;24864;49.940;19.770;2023-06-14T11:44:04;7.63;;;6.80;;
39128;SDS011;24864;49.940;19.770;2023-06-14T11:46:32;11.57;;;7.00;;
39128;SDS011;24864;49.940;19.770;2023-06-14T11:49:01;6.45;;;5.85;;
39128;SDS011;24864;49.940;19.770;2023-06-14T11:51:31;10.05;;;6.20;;
39128;SDS011;24864;49.940;19.770;2023-06-14T11:54:02;6.07;;;5.25;;
39128;SDS011;24864;49.940;19.770;2023-06-14T11:56:30;6.85;;;5.90;;
39128;SDS011;24864;49.940;19.770;2023-06-14T11:58:59;7.15;;;6.32;;
39128;SDS011;24864;49.940;19.770;2023-06-14T12:01:29;6.03;;;5.53;;
39128;SDS011;24864;49.940;19.770;2023-06-14T12:03:59;6.65;;;5.55;;
39128;SDS011;24864;49.940;19.770;2023-06-14T12:06:27;4.68;;;4.28;;
39128;SDS011;24864;49.940;19.770;2023-06-14T12:09:02;5.72;;;5.22;;
39128;SDS011;24864;49.940;19.770;2023-06-14T12:11:34;7.20;;;6.55;;
39128;SDS011;24864;49.940;19.770;2023-06-14T12:14:03;7.18;;;6.53;;
39128;SDS011;24864;49.940;19.770;2023-06-14T12:16:32;6.70;;;6.10;;
39128;SDS011;24864;49.940;19.770;2023-06-14T12:19:12;5.75;;;5.15;;
39128;SDS011;24864;49.940;19.770;2023-06-14T12:21:41;5.28;;;4.78;;
39128;SDS011;24864;49.940;19.770;2023-06-14T12:24:11;6.80;;;5.28;;
39128;SDS011;24864;49.940;19.770;2023-06-14T12:26:40;5.47;;;4.97;;
39128;SDS011;24864;49.940;19.770;2023-06-14T12:29:09;4.72;;;4.32;;
39128;SDS011;24864;49.940;19.770;2023-06-14T12:31:39;6.15;;;4.68;;
39128;SDS011;24864;49.940;19.770;2023-06-14T12:34:09;6.22;;;5.15;;
39128;SDS011;24864;49.940;19.770;2023-06-14T12:36:37;7.75;;;4.53;;
39128;SDS011;24864;49.940;19.770;2023-06-14T12:39:12;5.72;;;5.22;;
39128;SDS011;24864;49.940;19.770;2023-06-14T12:41:40;4.18;;;3.35;;
39128;SDS011;24864;49.940;19.770;2023-06-14T12:44:09;6.93;;;4.40;;
39128;SDS011;24864;49.940;19.770;2023-06-14T12:46:38;4.97;;;4.47;;
39128;SDS011;24864;49.940;19.770;2023-06-14T12:49:08;5.07;;;3.67;;
39128;SDS011;24864;49.940;19.770;2023-06-14T12:51:37;3.28;;;2.28;;
39128;SDS011;24864;49.940;19.770;2023-06-14T12:54:06;4.25;;;3.88;;
39128;SDS011;24864;49.940;19.770;2023-06-14T12:56:35;5.82;;;4.47;;
39128;SDS011;24864;49.940;19.770;2023-06-14T12:59:04;5.15;;;3.83;;
39128;SDS011;24864;49.940;19.770;2023-06-14T13:01:32;3.67;;;3.13;;
39128;SDS011;24864;49.940;19.770;2023-06-14T13:04:00;4.93;;;4.28;;
39128;SDS011;24864;49.940;19.770;2023-06-14T13:06:29;5.00;;;4.50;;
39128;SDS011;24864;49.940;19.770;2023-06-14T13:08:58;7.05;;;5.30;;
39128;SDS011;24864;49.940;19.770;2023-06-14T13:11:26;5.68;;;5.18;;
39128;SDS011;24864;49.940;19.770;2023-06-14T13:13:56;7.32;;;5.82;;
39128;SDS011;24864;49.940;19.770;2023-06-14T13:16:24;8.45;;;5.25;;
39128;SDS011;24864;49.940;19.770;2023-06-14T13:18:52;5.45;;;4.95;;
39128;SDS011;24864;49.940;19.770;2023-06-14T13:21:20;7.60;;;5.60;;
39128;SDS011;24864;49.940;19.770;2023-06-14T13:23:48;7.40;;;6.18;;
39128;SDS011;24864;49.940;19.770;2023-06-14T13:26:16;6.00;;;5.40;;
39128;SDS011;24864;49.940;19.770;2023-06-14T13:28:45;4.88;;;4.45;;
39128;SDS011;24864;49.940;19.770;2023-06-14T13:31:14;5.50;;;4.60;;
39128;SDS011;24864;49.940;19.770;2023-06-14T13:33:43;7.70;;;4.82;;
39128;SDS011;24864;49.940;19.770;2023-06-14T13:36:11;6.65;;;4.60;;
39128;SDS011;24864;49.940;19.770;2023-06-14T13:38:39;6.35;;;4.28;;
39128;SDS011;24864;49.940;19.770;2023-06-14T13:41:07;4.80;;;3.63;;
39128;SDS011;24864;49.940;19.770;2023-06-14T13:43:35;4.35;;;3.72;;
39128;SDS011;24864;49.940;19.770;2023-06-14T13:46:03;5.72;;;3.97;;
39128;SDS011;24864;49.940;19.770;2023-06-14T13:48:33;9.90;;;3.78;;
39128;SDS011;24864;49.940;19.770;2023-06-14T13:51:01;4.65;;;3.70;;
39128;SDS011;24864;49.940;19.770;2023-06-14T13:53:30;6.93;;;4.50;;
39128;SDS011;24864;49.940;19.770;2023-06-14T13:55:59;4.60;;;4.15;;
39128;SDS011;24864;49.940;19.770;2023-06-14T13:58:27;5.25;;;3.45;;
39128;SDS011;24864;49.940;19.770;2023-06-14T14:00:55;4.55;;;3.33;;
39128;SDS011;24864;49.940;19.770;2023-06-14T14:03:26;6.78;;;4.40;;
39128;SDS011;24864;49.940;19.770;2023-06-14T14:05:55;5.30;;;4.35;;
39128;SDS011;24864;49.940;19.770;2023-06-14T14:08:24;4.95;;;4.03;;
39128;SDS011;24864;49.940;19.770;2023-06-14T14:10:52;5.10;;;4.20;;
39128;SDS011;24864;49.940;19.770;2023-06-14T14:13:21;6.30;;;3.97;;
39128;SDS011;24864;49.940;19.770;2023-06-14T14:15:49;7.93;;;4.35;;
39128;SDS011;24864;49.940;19.770;2023-06-14T14:18:18;3.92;;;3.20;;
39128;SDS011;24864;49.940;19.770;2023-06-14T14:20:47;6.53;;;4.07;;
39128;SDS011;24864;49.940;19.770;2023-06-14T14:23:17;7.40;;;4.10;;
39128;SDS011;24864;49.940;19.770;2023-06-14T14:25:46;3.72;;;3.22;;
39128;SDS011;24864;49.940;19.770;2023-06-14T14:28:14;8.90;;;4.22;;
39128;SDS011;24864;49.940;19.770;2023-06-14T14:30:45;5.65;;;4.00;;
39128;SDS011;24864;49.940;19.770;2023-06-14T14:33:14;7.20;;;4.45;;
39128;SDS011;24864;49.940;19.770;2023-06-14T14:35:43;5.22;;;3.65;;
39128;SDS011;24864;49.940;19.770;2023-06-14T14:38:12;4.05;;;3.40;;